IBE07KK LEMD-EHAM
Flight info
| Callsign | IBE07KK |
|---|---|
| Flight time | 1h 53m |
| Altitude | 36000 |
| Route | RBO N867 DGO L176 LUSEM DCT LULUT DCT ADABI DCT BOKNO UN858 VANAD UN874 BAMES UT191 PODEM UN873 BELDI DCT LUMIL UY873 DENUT |
| Aircraft | A320/M-SDE3FGHIRWY/LB1 |
Departure
| Time | 2026-05-04 15:48 |
|---|---|
| Airport | Adolfo Suárez Madrid–Barajas Airport (LEMD) |
Arrival
| Time | 2026-05-04 17:41 |
|---|---|
| Airport | Amsterdam Airport Schiphol (EHAM) |
| Time | Latitude | Longitude | Altitude | Speed | Heading |
|---|---|---|---|---|---|
| 2026-05-04 14:58 | 40.49121 | -3.58964 | 2022 ft | 0 kts | 271° |
| 2026-05-04 15:33 | 40.49120 | -3.58937 | 2033 ft | 3 kts | 271° |
| 2026-05-04 15:34 | 40.49143 | -3.58881 | 2030 ft | 2 kts | 179° |
| 2026-05-04 15:34 | 40.49157 | -3.58881 | 2033 ft | 0 kts | 179° |
| 2026-05-04 15:38 | 40.49144 | -3.58881 | 2029 ft | 5 kts | 179° |
| 2026-05-04 15:38 | 40.49100 | -3.58880 | 2024 ft | 9 kts | 179° |
| 2026-05-04 15:38 | 40.49008 | -3.58879 | 2027 ft | 17 kts | 179° |
| 2026-05-04 15:39 | 40.48885 | -3.58879 | 2022 ft | 15 kts | 180° |
| 2026-05-04 15:39 | 40.48782 | -3.58876 | 2022 ft | 11 kts | 169° |
| 2026-05-04 15:39 | 40.48759 | -3.58599 | 2022 ft | 20 kts | 90° |
| 2026-05-04 15:40 | 40.48760 | -3.58411 | 2016 ft | 22 kts | 90° |
| 2026-05-04 15:40 | 40.48760 | -3.58209 | 2009 ft | 22 kts | 89° |
| 2026-05-04 15:40 | 40.48761 | -3.57996 | 2001 ft | 24 kts | 90° |
| 2026-05-04 15:40 | 40.48763 | -3.57770 | 1993 ft | 26 kts | 90° |
| 2026-05-04 15:41 | 40.48763 | -3.57529 | 1990 ft | 25 kts | 90° |
| 2026-05-04 15:41 | 40.48765 | -3.57290 | 1985 ft | 27 kts | 89° |
| 2026-05-04 15:41 | 40.48765 | -3.57037 | 1981 ft | 28 kts | 89° |
| 2026-05-04 15:41 | 40.48766 | -3.56792 | 1976 ft | 21 kts | 89° |
| 2026-05-04 15:42 | 40.48767 | -3.56605 | 1973 ft | 20 kts | 89° |
| 2026-05-04 15:42 | 40.48768 | -3.56418 | 1966 ft | 19 kts | 89° |
| 2026-05-04 15:42 | 40.48768 | -3.56255 | 1962 ft | 17 kts | 90° |
| 2026-05-04 15:42 | 40.48795 | -3.56144 | 1959 ft | 12 kts | 27° |
| 2026-05-04 15:43 | 40.48873 | -3.56139 | 1959 ft | 10 kts | 0° |
| 2026-05-04 15:43 | 40.48958 | -3.56139 | 1959 ft | 17 kts | 359° |
| 2026-05-04 15:43 | 40.49093 | -3.56140 | 1959 ft | 19 kts | 359° |
| 2026-05-04 15:43 | 40.49194 | -3.56139 | 1959 ft | 13 kts | 0° |
| 2026-05-04 15:44 | 40.49277 | -3.56140 | 1959 ft | 11 kts | 359° |
| 2026-05-04 15:44 | 40.49358 | -3.56142 | 1964 ft | 11 kts | 359° |
| 2026-05-04 15:44 | 40.49409 | -3.56089 | 1959 ft | 9 kts | 78° |
| 2026-05-04 15:44 | 40.49417 | -3.56007 | 1960 ft | 11 kts | 67° |
| 2026-05-04 15:45 | 40.49461 | -3.55927 | 1961 ft | 12 kts | 52° |
| 2026-05-04 15:45 | 40.49505 | -3.55847 | 1963 ft | 11 kts | 66° |
| 2026-05-04 15:45 | 40.49481 | -3.55783 | 1963 ft | 7 kts | 147° |
| 2026-05-04 15:45 | 40.49466 | -3.55769 | 1963 ft | 0 kts | 143° |
| 2026-05-04 15:46 | 40.49449 | -3.55752 | 1965 ft | 13 kts | 143° |
| 2026-05-04 15:47 | 40.49240 | -3.55542 | 1959 ft | 73 kts | 142° |
| 2026-05-04 15:47 | 40.48668 | -3.54959 | 1948 ft | 133 kts | 142° |
| 2026-05-04 15:47 | 40.47804 | -3.54077 | 1933 ft | 179 kts | 143° |
| 2026-05-04 15:47 | 40.46811 | -3.53045 | 2492 ft | 182 kts | 144° |
| 2026-05-04 15:48 | 40.45814 | -3.52033 | 3246 ft | 181 kts | 147° |
| 2026-05-04 15:48 | 40.44814 | -3.51024 | 3919 ft | 185 kts | 145° |
| 2026-05-04 15:48 | 40.42775 | -3.48415 | 4476 ft | 231 kts | 117° |
| 2026-05-04 15:49 | 40.42033 | -3.46429 | 4888 ft | 250 kts | 117° |
| 2026-05-04 15:49 | 40.41275 | -3.44347 | 5652 ft | 254 kts | 117° |
| 2026-05-04 15:49 | 40.40512 | -3.42250 | 6449 ft | 256 kts | 119° |
| 2026-05-04 15:49 | 40.39741 | -3.40138 | 7251 ft | 257 kts | 118° |
| 2026-05-04 15:50 | 40.39176 | -3.37898 | 7985 ft | 264 kts | 97° |
| 2026-05-04 15:50 | 40.39383 | -3.35500 | 8713 ft | 269 kts | 68° |
| 2026-05-04 15:50 | 40.40393 | -3.33408 | 9278 ft | 281 kts | 41° |
| 2026-05-04 15:50 | 40.42089 | -3.32120 | 9843 ft | 286 kts | 12° |
| 2026-05-04 15:51 | 40.44056 | -3.31701 | 10531 ft | 287 kts | 4° |
| 2026-05-04 15:51 | 40.46047 | -3.31369 | 11288 ft | 290 kts | 4° |
| 2026-05-04 15:51 | 40.48058 | -3.31040 | 12004 ft | 293 kts | 4° |
| 2026-05-04 15:51 | 40.50091 | -3.30707 | 12729 ft | 296 kts | 4° |
| 2026-05-04 15:52 | 40.52146 | -3.30365 | 13459 ft | 299 kts | 4° |
| 2026-05-04 15:52 | 40.54219 | -3.30015 | 14137 ft | 302 kts | 4° |
| 2026-05-04 15:52 | 40.56314 | -3.29656 | 14766 ft | 305 kts | 4° |
| 2026-05-04 15:52 | 40.58430 | -3.29291 | 15410 ft | 308 kts | 3° |
| 2026-05-04 15:53 | 40.60567 | -3.28925 | 16031 ft | 311 kts | 3° |
| 2026-05-04 15:53 | 40.62725 | -3.28557 | 16618 ft | 317 kts | 2° |
| 2026-05-04 15:53 | 40.64983 | -3.28179 | 16758 ft | 337 kts | 2° |
| 2026-05-04 15:53 | 40.67377 | -3.27779 | 16889 ft | 356 kts | 3° |
| 2026-05-04 15:54 | 40.69892 | -3.27355 | 17032 ft | 373 kts | 3° |
| 2026-05-04 15:54 | 40.72490 | -3.26911 | 17188 ft | 389 kts | 3° |
| 2026-05-04 15:54 | 40.75201 | -3.26444 | 17607 ft | 396 kts | 3° |
| 2026-05-04 15:54 | 40.77943 | -3.25970 | 18117 ft | 400 kts | 3° |
| 2026-05-04 15:55 | 40.80713 | -3.25489 | 18604 ft | 403 kts | 3° |
| 2026-05-04 15:55 | 40.83502 | -3.25001 | 19100 ft | 405 kts | 3° |
| 2026-05-04 15:55 | 40.86308 | -3.24501 | 19599 ft | 408 kts | 4° |
| 2026-05-04 15:55 | 40.89129 | -3.23932 | 20077 ft | 412 kts | 5° |
| 2026-05-04 15:56 | 40.91963 | -3.23298 | 20546 ft | 415 kts | 6° |
| 2026-05-04 15:56 | 40.94817 | -3.22630 | 21000 ft | 418 kts | 6° |
| 2026-05-04 15:56 | 40.97688 | -3.21952 | 21444 ft | 421 kts | 6° |
| 2026-05-04 15:56 | 41.00579 | -3.21276 | 21887 ft | 423 kts | 6° |
| 2026-05-04 15:57 | 41.03485 | -3.20608 | 22311 ft | 426 kts | 6° |
| 2026-05-04 15:57 | 41.06413 | -3.19947 | 22775 ft | 428 kts | 6° |
| 2026-05-04 15:57 | 41.09359 | -3.19287 | 23224 ft | 431 kts | 5° |
| 2026-05-04 15:57 | 41.12323 | -3.18626 | 23602 ft | 433 kts | 5° |
| 2026-05-04 15:58 | 41.15306 | -3.17960 | 23952 ft | 436 kts | 5° |
| 2026-05-04 15:58 | 41.18306 | -3.17286 | 24279 ft | 439 kts | 5° |
| 2026-05-04 15:58 | 41.21328 | -3.16605 | 24588 ft | 442 kts | 5° |
| 2026-05-04 15:58 | 41.24368 | -3.15920 | 24913 ft | 444 kts | 5° |
| 2026-05-04 15:59 | 41.27428 | -3.15231 | 25218 ft | 447 kts | 5° |
| 2026-05-04 15:59 | 41.30503 | -3.14538 | 25564 ft | 449 kts | 5° |
| 2026-05-04 15:59 | 41.33590 | -3.13840 | 25873 ft | 452 kts | 5° |
| 2026-05-04 15:59 | 41.36701 | -3.13134 | 26192 ft | 455 kts | 5° |
| 2026-05-04 16:00 | 41.39831 | -3.12421 | 26502 ft | 458 kts | 5° |
| 2026-05-04 16:00 | 41.42979 | -3.11701 | 26793 ft | 460 kts | 5° |
| 2026-05-04 16:00 | 41.46142 | -3.10980 | 27087 ft | 463 kts | 5° |
| 2026-05-04 16:00 | 41.49281 | -3.10267 | 27382 ft | 465 kts | 5° |
| 2026-05-04 16:01 | 41.52476 | -3.09544 | 27687 ft | 467 kts | 5° |
| 2026-05-04 16:01 | 41.55688 | -3.08819 | 27968 ft | 469 kts | 5° |
| 2026-05-04 16:01 | 41.58916 | -3.08088 | 28241 ft | 471 kts | 5° |
| 2026-05-04 16:01 | 41.62158 | -3.07351 | 28505 ft | 474 kts | 5° |
| 2026-05-04 16:02 | 41.65417 | -3.06608 | 28758 ft | 476 kts | 5° |
| 2026-05-04 16:02 | 41.68690 | -3.05863 | 29002 ft | 478 kts | 5° |
| 2026-05-04 16:02 | 41.75243 | -3.04372 | 29734 ft | 477 kts | 5° |
| 2026-05-04 16:03 | 41.78518 | -3.03621 | 30104 ft | 477 kts | 5° |
| 2026-05-04 16:03 | 41.81785 | -3.02868 | 30395 ft | 477 kts | 5° |
| 2026-05-04 16:03 | 41.85056 | -3.02113 | 30695 ft | 477 kts | 5° |
| 2026-05-04 16:03 | 41.88329 | -3.01355 | 30995 ft | 477 kts | 5° |
| 2026-05-04 16:04 | 41.91601 | -3.00599 | 31289 ft | 477 kts | 5° |
| 2026-05-04 16:04 | 41.98142 | -2.99084 | 31892 ft | 477 kts | 6° |
| 2026-05-04 16:04 | 42.01415 | -2.98324 | 32198 ft | 477 kts | 6° |
| 2026-05-04 16:05 | 42.04689 | -2.97564 | 32503 ft | 477 kts | 6° |
| 2026-05-04 16:05 | 42.07965 | -2.96801 | 32799 ft | 478 kts | 6° |
| 2026-05-04 16:05 | 42.14515 | -2.95279 | 33394 ft | 478 kts | 5° |
| 2026-05-04 16:06 | 42.17796 | -2.94521 | 33706 ft | 478 kts | 6° |
| 2026-05-04 16:06 | 42.26529 | -2.92476 | 34408 ft | 478 kts | 6° |
| 2026-05-04 16:07 | 42.30915 | -2.91445 | 34725 ft | 478 kts | 6° |
| 2026-05-04 16:07 | 42.40738 | -2.89086 | 35453 ft | 479 kts | 11° |
| 2026-05-04 16:08 | 42.42859 | -2.88240 | 35601 ft | 481 kts | 17° |
| 2026-05-04 16:08 | 42.51328 | -2.80885 | 35998 ft | 490 kts | 40° |
| 2026-05-04 16:09 | 42.56419 | -2.74721 | 35998 ft | 491 kts | 40° |
| 2026-05-04 16:10 | 42.66608 | -2.62412 | 36001 ft | 490 kts | 41° |
| 2026-05-04 16:11 | 42.76785 | -2.50062 | 36009 ft | 490 kts | 41° |
| 2026-05-04 16:12 | 42.92022 | -2.31441 | 36020 ft | 490 kts | 41° |
| 2026-05-04 16:13 | 43.02159 | -2.18972 | 36037 ft | 491 kts | 41° |
| 2026-05-04 16:14 | 43.12252 | -2.06498 | 36031 ft | 490 kts | 41° |
| 2026-05-04 16:16 | 43.24888 | -1.90820 | 36016 ft | 490 kts | 42° |
| 2026-05-04 16:16 | 43.32714 | -1.81813 | 36016 ft | 489 kts | 30° |
| 2026-05-04 16:17 | 43.38610 | -1.77134 | 36008 ft | 490 kts | 30° |
| 2026-05-04 16:18 | 43.50016 | -1.66821 | 36025 ft | 491 kts | 34° |
| 2026-05-04 16:19 | 43.64238 | -1.53827 | 36026 ft | 490 kts | 33° |
| 2026-05-04 16:20 | 43.78502 | -1.40843 | 35998 ft | 492 kts | 33° |
| 2026-05-04 16:22 | 43.92764 | -1.27739 | 36018 ft | 492 kts | 33° |
| 2026-05-04 16:23 | 44.09857 | -1.11964 | 35982 ft | 491 kts | 34° |
| 2026-05-04 16:25 | 44.26926 | -0.96084 | 35977 ft | 492 kts | 34° |
| 2026-05-04 16:26 | 44.47495 | -0.79337 | 35970 ft | 491 kts | 23° |
| 2026-05-04 16:28 | 44.63162 | -0.69749 | 35968 ft | 491 kts | 23° |
| 2026-05-04 16:29 | 44.85087 | -0.56260 | 35983 ft | 491 kts | 24° |
| 2026-05-04 16:31 | 45.00720 | -0.46545 | 35983 ft | 491 kts | 24° |
| 2026-05-04 16:32 | 45.19479 | -0.34852 | 35967 ft | 491 kts | 24° |
| 2026-05-04 16:33 | 45.31953 | -0.27015 | 35949 ft | 490 kts | 24° |
| 2026-05-04 16:34 | 45.41301 | -0.21121 | 35955 ft | 490 kts | 24° |
| 2026-05-04 16:35 | 45.59968 | -0.09290 | 35960 ft | 489 kts | 25° |
| 2026-05-04 16:36 | 45.69292 | -0.03334 | 35963 ft | 490 kts | 24° |
| 2026-05-04 16:37 | 45.78623 | 0.02635 | 35935 ft | 489 kts | 24° |
| 2026-05-04 16:38 | 45.91068 | 0.10619 | 35928 ft | 491 kts | 25° |
| 2026-05-04 16:39 | 46.06647 | 0.20712 | 35932 ft | 492 kts | 25° |
| 2026-05-04 16:40 | 46.19135 | 0.28809 | 35945 ft | 492 kts | 25° |
| 2026-05-04 16:41 | 46.34715 | 0.39006 | 35937 ft | 491 kts | 25° |
| 2026-05-04 16:43 | 46.50283 | 0.49241 | 35936 ft | 492 kts | 25° |
| 2026-05-04 16:43 | 46.59844 | 0.54324 | 35941 ft | 491 kts | 12° |
| 2026-05-04 16:45 | 46.79830 | 0.60891 | 35939 ft | 490 kts | 12° |
| 2026-05-04 16:46 | 46.96467 | 0.66418 | 35929 ft | 490 kts | 12° |
| 2026-05-04 16:47 | 47.09870 | 0.69712 | 35930 ft | 488 kts | 2° |
| 2026-05-04 16:48 | 47.23423 | 0.71115 | 35946 ft | 488 kts | 2° |
| 2026-05-04 16:49 | 47.36972 | 0.72539 | 35951 ft | 488 kts | 2° |
| 2026-05-04 16:50 | 47.50468 | 0.74426 | 35958 ft | 488 kts | 13° |
| 2026-05-04 16:51 | 47.60151 | 0.79079 | 35953 ft | 488 kts | 18° |
| 2026-05-04 16:52 | 47.73010 | 0.85413 | 35925 ft | 487 kts | 18° |
| 2026-05-04 16:53 | 47.81608 | 0.89676 | 35941 ft | 487 kts | 18° |
| 2026-05-04 16:54 | 47.94411 | 0.96099 | 35948 ft | 485 kts | 18° |
| 2026-05-04 16:55 | 48.13533 | 1.05821 | 35947 ft | 483 kts | 18° |
| 2026-05-04 16:56 | 48.29362 | 1.13922 | 35945 ft | 481 kts | 18° |
| 2026-05-04 16:57 | 48.38867 | 1.18772 | 35949 ft | 481 kts | 18° |
| 2026-05-04 16:58 | 48.51516 | 1.25259 | 35944 ft | 480 kts | 18° |
| 2026-05-04 17:00 | 48.70462 | 1.34848 | 35939 ft | 478 kts | 18° |
| 2026-05-04 17:01 | 48.86244 | 1.42855 | 35956 ft | 479 kts | 18° |
| 2026-05-04 17:02 | 48.98913 | 1.48928 | 35949 ft | 477 kts | 9° |
| 2026-05-04 17:03 | 49.08744 | 1.51232 | 35949 ft | 477 kts | 7° |
| 2026-05-04 17:03 | 49.18573 | 1.53525 | 35959 ft | 476 kts | 8° |
| 2026-05-04 17:04 | 49.24949 | 1.56185 | 35958 ft | 477 kts | 24° |
| 2026-05-04 17:04 | 49.30490 | 1.61663 | 35940 ft | 473 kts | 43° |
| 2026-05-04 17:05 | 49.40016 | 1.75581 | 35932 ft | 473 kts | 44° |
| 2026-05-04 17:06 | 49.47158 | 1.86071 | 35919 ft | 474 kts | 45° |
| 2026-05-04 17:07 | 49.53495 | 1.95429 | 35947 ft | 474 kts | 45° |
| 2026-05-04 17:07 | 49.59043 | 2.03653 | 35958 ft | 473 kts | 45° |
| 2026-05-04 17:08 | 49.66153 | 2.14211 | 35959 ft | 473 kts | 45° |
| 2026-05-04 17:09 | 49.70873 | 2.21256 | 35947 ft | 472 kts | 45° |
| 2026-05-04 17:09 | 49.75587 | 2.28311 | 35924 ft | 472 kts | 45° |
| 2026-05-04 17:10 | 49.87370 | 2.46047 | 35918 ft | 473 kts | 45° |
| 2026-05-04 17:11 | 49.92080 | 2.53176 | 35925 ft | 473 kts | 45° |
| 2026-05-04 17:11 | 49.97146 | 2.59676 | 35942 ft | 474 kts | 31° |
| 2026-05-04 17:12 | 50.00041 | 2.62136 | 35945 ft | 474 kts | 28° |
| 2026-05-04 17:13 | 50.14622 | 2.74154 | 35936 ft | 475 kts | 28° |
| 2026-05-04 17:14 | 50.26273 | 2.83812 | 35921 ft | 477 kts | 28° |
| 2026-05-04 17:15 | 50.35060 | 2.91132 | 35929 ft | 477 kts | 28° |
| 2026-05-04 17:16 | 50.46793 | 3.00952 | 35668 ft | 478 kts | 28° |
| 2026-05-04 17:16 | 50.55629 | 3.08264 | 34922 ft | 479 kts | 28° |
| 2026-05-04 17:17 | 50.58582 | 3.10714 | 34677 ft | 480 kts | 28° |
| 2026-05-04 17:17 | 50.67439 | 3.18116 | 33971 ft | 481 kts | 28° |
| 2026-05-04 17:18 | 50.70396 | 3.20592 | 33703 ft | 482 kts | 28° |
| 2026-05-04 17:18 | 50.76317 | 3.25547 | 33156 ft | 481 kts | 28° |
| 2026-05-04 17:19 | 50.82231 | 3.30510 | 32597 ft | 481 kts | 28° |
| 2026-05-04 17:19 | 50.88130 | 3.35500 | 32075 ft | 480 kts | 29° |
| 2026-05-04 17:20 | 50.94012 | 3.40499 | 31565 ft | 479 kts | 29° |
| 2026-05-04 17:20 | 50.99882 | 3.45479 | 31054 ft | 478 kts | 29° |
| 2026-05-04 17:20 | 51.02811 | 3.47966 | 30341 ft | 479 kts | 29° |
| 2026-05-04 17:21 | 51.08775 | 3.53045 | 27918 ft | 487 kts | 29° |
| 2026-05-04 17:21 | 51.14658 | 3.58073 | 26252 ft | 463 kts | 28° |
| 2026-05-04 17:22 | 51.17440 | 3.60458 | 25529 ft | 446 kts | 29° |
| 2026-05-04 17:22 | 51.20139 | 3.62703 | 24833 ft | 430 kts | 25° |
| 2026-05-04 17:23 | 51.28736 | 3.65621 | 22976 ft | 434 kts | 358° |
| 2026-05-04 17:23 | 51.31744 | 3.65530 | 22406 ft | 431 kts | 358° |
| 2026-05-04 17:23 | 51.37693 | 3.65340 | 21279 ft | 423 kts | 358° |
| 2026-05-04 17:24 | 51.40620 | 3.65249 | 20722 ft | 419 kts | 358° |
| 2026-05-04 17:24 | 51.49239 | 3.64991 | 19091 ft | 407 kts | 359° |
| 2026-05-04 17:25 | 51.52055 | 3.64905 | 18555 ft | 403 kts | 358° |
| 2026-05-04 17:25 | 51.57622 | 3.64727 | 17454 ft | 397 kts | 359° |
| 2026-05-04 17:26 | 51.63100 | 3.64559 | 16411 ft | 390 kts | 359° |
| 2026-05-04 17:26 | 51.70953 | 3.66476 | 14886 ft | 381 kts | 26° |
| 2026-05-04 17:27 | 51.74985 | 3.71813 | 13880 ft | 376 kts | 52° |
| 2026-05-04 17:27 | 51.77796 | 3.78817 | 12856 ft | 371 kts | 57° |
| 2026-05-04 17:28 | 51.80434 | 3.85519 | 11916 ft | 336 kts | 57° |
| 2026-05-04 17:29 | 51.83944 | 3.94450 | 10834 ft | 291 kts | 58° |
| 2026-05-04 17:29 | 51.87137 | 4.02622 | 10504 ft | 284 kts | 58° |
| 2026-05-04 17:30 | 51.90265 | 4.10654 | 10117 ft | 281 kts | 58° |
| 2026-05-04 17:31 | 51.92805 | 4.15506 | 9204 ft | 280 kts | 41° |
| 2026-05-04 17:31 | 51.97051 | 4.21673 | 7525 ft | 270 kts | 41° |
| 2026-05-04 17:32 | 51.99822 | 4.25716 | 6441 ft | 266 kts | 41° |
| 2026-05-04 17:33 | 52.03862 | 4.31640 | 4762 ft | 255 kts | 41° |
| 2026-05-04 17:33 | 52.05168 | 4.33558 | 4204 ft | 251 kts | 41° |
| 2026-05-04 17:34 | 52.09230 | 4.38371 | 2939 ft | 223 kts | 36° |
| 2026-05-04 17:34 | 52.10430 | 4.39860 | 2768 ft | 214 kts | 37° |
| 2026-05-04 17:35 | 52.13920 | 4.44160 | 2226 ft | 204 kts | 36° |
| 2026-05-04 17:35 | 52.16097 | 4.46792 | 1993 ft | 187 kts | 35° |
| 2026-05-04 17:35 | 52.17094 | 4.47998 | 1980 ft | 170 kts | 35° |
| 2026-05-04 17:36 | 52.18018 | 4.49113 | 1986 ft | 163 kts | 36° |
| 2026-05-04 17:36 | 52.18917 | 4.50195 | 2016 ft | 156 kts | 35° |
| 2026-05-04 17:36 | 52.19511 | 4.50908 | 2013 ft | 157 kts | 35° |
| 2026-05-04 17:36 | 52.20343 | 4.52011 | 1987 ft | 156 kts | 49° |
| 2026-05-04 17:37 | 52.20996 | 4.53424 | 2001 ft | 156 kts | 53° |
| 2026-05-04 17:37 | 52.21605 | 4.54886 | 2009 ft | 158 kts | 54° |
| 2026-05-04 17:37 | 52.22211 | 4.56402 | 1995 ft | 158 kts | 55° |
| 2026-05-04 17:37 | 52.22802 | 4.57911 | 2001 ft | 157 kts | 55° |
| 2026-05-04 17:38 | 52.23383 | 4.59403 | 1964 ft | 158 kts | 54° |
| 2026-05-04 17:38 | 52.23972 | 4.60922 | 1820 ft | 159 kts | 56° |
| 2026-05-04 17:38 | 52.24551 | 4.62422 | 1640 ft | 151 kts | 55° |
| 2026-05-04 17:38 | 52.25095 | 4.63829 | 1434 ft | 142 kts | 56° |
| 2026-05-04 17:39 | 52.26139 | 4.66532 | 1048 ft | 138 kts | 54° |
| 2026-05-04 17:39 | 52.26654 | 4.67865 | 856 ft | 138 kts | 54° |
| 2026-05-04 17:39 | 52.27163 | 4.69188 | 674 ft | 139 kts | 53° |
| 2026-05-04 17:40 | 52.27658 | 4.70521 | 518 ft | 136 kts | 54° |
| 2026-05-04 17:40 | 52.28190 | 4.71832 | 317 ft | 140 kts | 52° |
| 2026-05-04 17:40 | 52.28697 | 4.73176 | 108 ft | 138 kts | 53° |
| 2026-05-04 17:40 | 52.29203 | 4.74486 | 8 ft | 132 kts | 54° |
| 2026-05-04 17:41 | 52.29620 | 4.75563 | -1 ft | 88 kts | 59° |
| 2026-05-04 17:41 | 52.29853 | 4.76172 | -4 ft | 38 kts | 58° |
| 2026-05-04 17:41 | 52.29970 | 4.76458 | -3 ft | 20 kts | 48° |
| 2026-05-04 17:41 | 52.30068 | 4.76573 | -2 ft | 14 kts | 26° |
| 2026-05-04 17:42 | 52.30134 | 4.76628 | -1 ft | 9 kts | 28° |
| 2026-05-04 17:42 | 52.30190 | 4.76678 | -1 ft | 11 kts | 28° |
| 2026-05-04 17:42 | 52.30260 | 4.76740 | -1 ft | 10 kts | 29° |
| 2026-05-04 17:42 | 52.30308 | 4.76812 | -1 ft | 11 kts | 53° |
| 2026-05-04 17:43 | 52.30353 | 4.76929 | -1 ft | 11 kts | 58° |
| 2026-05-04 17:43 | 52.30398 | 4.77044 | -1 ft | 13 kts | 58° |
| 2026-05-04 17:43 | 52.30445 | 4.77171 | -1 ft | 13 kts | 58° |
| 2026-05-04 17:43 | 52.30496 | 4.77301 | -1 ft | 14 kts | 57° |
| 2026-05-04 17:44 | 52.30547 | 4.77434 | -1 ft | 10 kts | 57° |
| 2026-05-04 17:44 | 52.30588 | 4.77529 | -1 ft | 12 kts | 48° |
| 2026-05-04 17:44 | 52.30665 | 4.77592 | -1 ft | 12 kts | 2° |
| 2026-05-04 17:44 | 52.30746 | 4.77596 | -1 ft | 12 kts | 3° |
| 2026-05-04 17:45 | 52.30816 | 4.77603 | -1 ft | 10 kts | 3° |
| 2026-05-04 17:45 | 52.30901 | 4.77611 | -1 ft | 14 kts | 3° |
| 2026-05-04 17:45 | 52.30983 | 4.77616 | -1 ft | 10 kts | 353° |
| 2026-05-04 17:45 | 52.31033 | 4.77536 | -1 ft | 11 kts | 301° |
| 2026-05-04 17:46 | 52.31066 | 4.77437 | -1 ft | 5 kts | 289° |
| 2026-05-04 17:46 | 52.31067 | 4.77433 | -1 ft | 0 kts | 286° |
| 2026-05-04 17:46 | 52.31067 | 4.77431 | -1 ft | 2 kts | 285° |
| 2026-05-04 17:46 | 52.31071 | 4.77333 | -1 ft | 11 kts | 273° |
| 2026-05-04 17:47 | 52.31076 | 4.77197 | -1 ft | 11 kts | 273° |
| 2026-05-04 17:47 | 52.31065 | 4.77130 | -1 ft | 5 kts | 217° |
| 2026-05-04 17:47 | 52.31034 | 4.77120 | -1 ft | 3 kts | 183° |
| 2026-05-04 17:47 | 52.31009 | 4.77118 | -1 ft | 2 kts | 183° |
| 2026-05-04 17:48 | 52.31007 | 4.77118 | -1 ft | 0 kts | 183° |